createdAt,value
2022-07-30T00:00:30.574Z,99.90
2022-07-30T00:05:32.378Z,99.90
2022-07-30T00:10:34.232Z,99.90
2022-07-30T00:15:36.272Z,99.90
2022-07-30T00:20:40.329Z,99.90
2022-07-30T00:25:45.676Z,99.90
2022-07-30T00:30:47.530Z,99.90
2022-07-30T00:35:54.544Z,99.90
2022-07-30T00:40:56.333Z,99.90
2022-07-30T00:45:58.139Z,99.90
2022-07-30T00:51:00.242Z,99.90
2022-07-30T00:56:03.015Z,99.90
2022-07-30T01:01:05.039Z,99.90
2022-07-30T01:06:07.018Z,99.90
2022-07-30T01:11:16.564Z,99.90
2022-07-30T01:16:18.450Z,99.90
2022-07-30T01:21:28.555Z,99.90
2022-07-30T01:26:31.223Z,99.90
2022-07-30T01:31:33.985Z,99.90
2022-07-30T01:36:36.628Z,99.90
2022-07-30T01:41:39.276Z,99.90
2022-07-30T01:46:41.491Z,99.90
2022-07-30T01:51:47.615Z,99.90
2022-07-30T01:56:51.267Z,99.90
2022-07-30T02:01:53.110Z,99.90
2022-07-30T02:07:03.710Z,99.90
2022-07-30T02:12:26.339Z,99.90
2022-07-30T02:17:39.880Z,99.90
2022-07-30T02:22:48.877Z,99.90
2022-07-30T02:27:58.311Z,99.90
2022-07-30T02:33:04.732Z,99.90
2022-07-30T02:38:08.067Z,99.90
2022-07-30T02:43:11.470Z,99.90
2022-07-30T02:48:34.353Z,99.90
2022-07-30T02:53:38.384Z,99.90
2022-07-30T02:58:41.380Z,99.90
2022-07-30T03:03:44.458Z,99.90
2022-07-30T03:08:46.936Z,99.90
2022-07-30T03:13:48.857Z,99.90
2022-07-30T03:18:53.351Z,99.90
2022-07-30T03:23:56.813Z,99.90
2022-07-30T03:28:59.175Z,99.90
2022-07-30T03:34:02.531Z,99.90
2022-07-30T03:39:05.481Z,99.90
2022-07-30T03:44:08.555Z,99.90
2022-07-30T03:49:11.143Z,99.90
2022-07-30T03:54:15.175Z,99.90
2022-07-30T03:59:17.365Z,99.90
2022-07-30T04:04:19.199Z,99.90
2022-07-30T04:09:20.990Z,99.90
2022-07-30T04:14:22.802Z,99.90
2022-07-30T04:19:44.651Z,99.90
2022-07-30T04:24:48.084Z,99.90
2022-07-30T04:29:49.920Z,99.90
2022-07-30T04:34:54.613Z,99.90
2022-07-30T04:39:57.798Z,99.90
2022-07-30T04:44:59.568Z,99.90
2022-07-30T04:50:02.077Z,99.90
2022-07-30T04:55:06.721Z,99.90
2022-07-30T05:00:09.366Z,99.90
2022-07-30T05:05:16.257Z,99.90
2022-07-30T05:10:18.435Z,99.90
2022-07-30T05:15:20.344Z,99.90
2022-07-30T05:20:22.124Z,99.90
2022-07-30T05:25:23.971Z,99.90
2022-07-30T05:30:27.586Z,99.90
2022-07-30T05:35:29.685Z,99.90
2022-07-30T05:40:31.522Z,99.90
2022-07-30T05:45:33.416Z,99.90
2022-07-30T05:50:35.296Z,99.10
2022-07-30T05:55:37.111Z,92.60
2022-07-30T06:00:38.940Z,75.90
2022-07-30T06:05:40.816Z,59.90
2022-07-30T06:10:42.576Z,55.20
2022-07-30T06:15:44.838Z,62.40
2022-07-30T06:20:46.683Z,72.80
2022-07-30T06:25:48.932Z,75.10
2022-07-30T06:30:50.806Z,77.20
2022-07-30T06:35:52.775Z,77.50
2022-07-30T06:40:57.139Z,78.60
2022-07-30T06:46:01.205Z,81.70
2022-07-30T06:51:03.226Z,84.00
2022-07-30T06:56:05.101Z,79.10
2022-07-30T07:01:06.962Z,58.40
2022-07-30T07:06:13.160Z,42.90
2022-07-30T07:11:15.037Z,37.90
2022-07-30T07:16:16.946Z,31.40
2022-07-30T07:21:19.468Z,32.10
2022-07-30T07:26:21.438Z,32.30
2022-07-30T07:32:05.842Z,29.90
2022-07-30T07:36:45.052Z,30.30
2022-07-30T07:41:48.313Z,39.10
2022-07-30T07:46:51.203Z,39.30
2022-07-30T07:51:53.000Z,35.50
2022-07-30T07:56:57.717Z,32.80
2022-07-30T08:01:59.580Z,28.80
2022-07-30T08:07:06.065Z,29.90
2022-07-30T08:12:08.194Z,28.20
2022-07-30T08:17:10.007Z,26.90
2022-07-30T08:22:12.056Z,25.40
2022-07-30T08:27:13.851Z,25.20
2022-07-30T08:32:15.675Z,26.00
2022-07-30T08:37:17.519Z,27.20
2022-07-30T08:42:19.548Z,25.30
2022-07-30T08:47:26.804Z,25.80
2022-07-30T08:52:28.852Z,24.20
2022-07-30T08:57:34.361Z,23.70
2022-07-30T09:02:36.152Z,22.90
2022-07-30T09:07:38.566Z,24.40
2022-07-30T09:12:42.762Z,27.10
2022-07-30T09:17:53.752Z,24.80
2022-07-30T09:22:58.746Z,23.80
2022-07-30T09:28:00.640Z,26.00
2022-07-30T09:33:03.446Z,25.10
2022-07-30T09:38:06.902Z,26.10
2022-07-30T09:43:12.095Z,27.70
2022-07-30T09:48:25.421Z,32.50
2022-07-30T09:53:27.500Z,28.30
2022-07-30T09:58:40.380Z,25.20
2022-07-30T10:03:47.938Z,25.20
2022-07-30T10:08:51.655Z,26.20
2022-07-30T10:13:56.710Z,30.70
2022-07-30T10:19:00.640Z,34.40
2022-07-30T10:24:02.662Z,38.30
2022-07-30T10:29:05.300Z,37.70
2022-07-30T10:34:07.968Z,40.10
2022-07-30T10:39:14.989Z,41.70
2022-07-30T10:44:33.874Z,41.10
2022-07-30T10:49:41.315Z,41.50
2022-07-30T10:54:45.503Z,41.70
2022-07-30T11:00:09.516Z,41.70
2022-07-30T11:05:43.847Z,42.80
2022-07-30T11:10:44.066Z,39.90
2022-07-30T11:15:58.567Z,43.00
2022-07-30T11:21:21.497Z,42.50
2022-07-30T11:26:41.170Z,41.10
2022-07-30T11:31:56.591Z,42.40
2022-07-30T11:37:22.077Z,43.30
2022-07-30T11:42:30.364Z,43.60
2022-07-30T11:47:32.308Z,42.30
2022-07-30T11:52:34.489Z,40.90
2022-07-30T11:57:42.964Z,43.80
2022-07-30T12:02:45.497Z,43.40
2022-07-30T12:07:47.351Z,44.00
2022-07-30T12:12:49.172Z,43.40
2022-07-30T12:18:00.766Z,44.50
2022-07-30T12:23:14.039Z,45.20
2022-07-30T12:28:27.640Z,45.30
2022-07-30T12:33:29.482Z,44.40
2022-07-30T12:38:44.933Z,42.60
2022-07-30T12:43:52.424Z,42.30
2022-07-30T12:48:57.141Z,43.60
2022-07-30T12:54:01.237Z,42.00
2022-07-30T12:59:03.061Z,43.60
2022-07-30T13:04:08.373Z,43.60
2022-07-30T13:09:21.369Z,43.30
2022-07-30T13:14:24.673Z,42.80
2022-07-30T13:19:28.917Z,41.10
2022-07-30T13:24:30.684Z,42.70
2022-07-30T13:29:32.496Z,42.10
2022-07-30T13:34:34.257Z,41.10
2022-07-30T13:39:36.224Z,42.50
2022-07-30T13:44:38.193Z,41.90
2022-07-30T13:49:44.130Z,42.60
2022-07-30T13:54:46.134Z,42.50
2022-07-30T13:59:48.144Z,42.60
2022-07-30T14:04:49.963Z,43.00
2022-07-30T14:09:54.538Z,43.00
2022-07-30T14:14:56.525Z,42.20
2022-07-30T14:19:58.339Z,42.60
2022-07-30T14:25:03.063Z,43.30
2022-07-30T14:30:07.537Z,45.20
2022-07-30T14:35:10.397Z,45.30
2022-07-30T14:40:13.112Z,45.30
2022-07-30T14:45:15.076Z,45.00
2022-07-30T14:50:16.853Z,45.90
2022-07-30T14:55:19.026Z,46.10
2022-07-30T15:00:21.354Z,46.00
2022-07-30T15:05:26.609Z,47.20
2022-07-30T15:10:28.442Z,47.70
2022-07-30T15:15:35.738Z,46.70
2022-07-30T15:20:40.209Z,46.60
2022-07-30T15:25:42.821Z,46.70
2022-07-30T15:30:44.593Z,47.10
2022-07-30T15:35:46.496Z,46.70
2022-07-30T15:40:48.388Z,47.60
2022-07-30T15:45:56.034Z,47.60
2022-07-30T15:51:03.602Z,47.40
2022-07-30T15:56:05.873Z,48.20
2022-07-30T16:01:08.752Z,47.70
2022-07-30T16:06:10.650Z,48.90
2022-07-30T16:11:12.503Z,49.70
2022-07-30T16:16:14.401Z,49.60
2022-07-30T16:21:16.212Z,49.50
2022-07-30T16:26:19.129Z,50.60
2022-07-30T16:31:21.051Z,50.70
2022-07-30T16:36:23.030Z,51.20
2022-07-30T16:41:24.851Z,52.10
2022-07-30T16:46:27.365Z,52.10
2022-07-30T16:51:29.219Z,52.70
2022-07-30T16:56:31.126Z,53.80
2022-07-30T17:01:33.037Z,54.30
2022-07-30T17:06:36.354Z,55.20
2022-07-30T17:11:46.997Z,55.60
2022-07-30T17:16:50.320Z,57.10
2022-07-30T17:21:52.320Z,57.40
2022-07-30T17:26:54.190Z,58.20
2022-07-30T17:31:56.006Z,59.20
2022-07-30T17:36:58.343Z,59.70
2022-07-30T17:42:06.309Z,61.10
2022-07-30T17:47:14.400Z,61.80
2022-07-30T17:52:17.032Z,62.60
2022-07-30T17:57:18.836Z,63.20
2022-07-30T18:02:27.532Z,63.10
2022-07-30T18:07:31.086Z,64.20
2022-07-30T18:12:34.319Z,64.90
2022-07-30T18:17:36.741Z,66.20
2022-07-30T18:22:38.636Z,67.70
2022-07-30T18:27:42.371Z,69.80
2022-07-30T18:32:45.281Z,70.90
2022-07-30T18:37:47.263Z,73.90
2022-07-30T18:42:49.513Z,77.50
2022-07-30T18:47:51.902Z,80.40
2022-07-30T18:52:54.332Z,81.60
2022-07-30T18:57:56.193Z,84.10
2022-07-30T19:02:59.460Z,87.80
2022-07-30T19:08:01.313Z,90.30
2022-07-30T19:13:04.208Z,91.40
2022-07-30T19:18:06.140Z,92.60
2022-07-30T19:23:08.535Z,93.70
2022-07-30T19:28:11.914Z,95.00
2022-07-30T19:33:15.416Z,96.30
2022-07-30T19:38:21.768Z,98.10
2022-07-30T19:43:25.699Z,99.70
2022-07-30T19:48:31.592Z,99.90
2022-07-30T19:53:34.650Z,99.90
2022-07-30T19:58:37.255Z,99.90
2022-07-30T20:03:39.373Z,99.90
2022-07-30T20:08:41.747Z,99.90
2022-07-30T20:13:46.931Z,99.90
2022-07-30T20:18:49.755Z,99.90
2022-07-30T20:23:54.071Z,99.90
2022-07-30T20:28:55.848Z,99.90
2022-07-30T20:33:58.981Z,99.90
2022-07-30T20:39:01.069Z,99.90
2022-07-30T20:44:04.594Z,99.90
2022-07-30T20:49:06.434Z,99.90
2022-07-30T20:54:08.896Z,99.90
2022-07-30T20:59:10.705Z,99.90
2022-07-30T21:04:23.771Z,99.90
2022-07-30T21:09:29.209Z,99.90
2022-07-30T21:14:52.808Z,99.90
2022-07-30T21:19:54.635Z,99.90
2022-07-30T21:24:56.761Z,99.90
2022-07-30T21:29:58.616Z,99.90
2022-07-30T21:35:08.433Z,99.90
2022-07-30T21:40:11.047Z,99.90
2022-07-30T21:45:12.837Z,99.90
2022-07-30T21:50:16.129Z,99.90
2022-07-30T21:55:18.219Z,99.90
2022-07-30T22:00:44.668Z,99.90
2022-07-30T22:05:47.454Z,99.90
2022-07-30T22:10:50.780Z,99.90
2022-07-30T22:15:52.694Z,99.90
2022-07-30T22:20:55.300Z,99.90
2022-07-30T22:26:00.092Z,99.90
2022-07-30T22:31:02.235Z,99.90
2022-07-30T22:36:09.847Z,99.90
2022-07-30T22:41:13.978Z,99.90
2022-07-30T22:46:31.134Z,99.90
2022-07-30T22:52:03.137Z,99.90
2022-07-30T22:57:03.867Z,99.90
2022-07-30T23:02:06.543Z,99.90
2022-07-30T23:07:14.179Z,99.90
2022-07-30T23:12:21.419Z,99.90
2022-07-30T23:17:23.330Z,99.90
2022-07-30T23:22:25.757Z,99.90
2022-07-30T23:27:27.597Z,99.90
2022-07-30T23:32:30.100Z,99.90
2022-07-30T23:37:47.862Z,99.90
2022-07-30T23:42:51.781Z,99.90
2022-07-30T23:48:02.542Z,99.90
2022-07-30T23:53:05.346Z,99.90
2022-07-30T23:58:07.494Z,99.90
